Time;durP1;ratioP1;P1;durP2;ratioP2;P2;SDS_P1;SDS_P2;PMS_P1;PMS_P2;Temp;Humidity;BMP_temperature;BMP_pressure;BME280_temperature;BME280_humidity;BME280_pressure;Samples;Min_cycle;Max_cycle;Signal;HPM_P1;HPM_P2
2021/07/20 00:00:42;;;;;;;20.17;10.05;;;;;;;17.82;82.00;98024.28;1663769;85;21584;-73
2021/07/20 00:03:10;;;;;;;12.15;8.15;;;;;;;17.69;82.67;98017.05;1679554;85;20982;-73
2021/07/20 00:05:38;;;;;;;15.63;7.70;;;;;;;17.63;82.33;98017.78;1663999;86;20832;-73
2021/07/20 00:08:05;;;;;;;12.60;8.60;;;;;;;17.55;82.23;98015.86;1726971;83;21368;-73
2021/07/20 00:10:42;;;;;;;11.57;7.22;;;;;;;17.55;82.23;98015.86;1726540;82;21126;-73
2021/07/20 00:13:08;;;;;;;15.40;8.58;;;;;;;17.45;82.47;98017.00;1691452;84;21008;-73
2021/07/20 00:15:35;;;;;;;16.37;9.35;;;;;;;17.38;82.79;98009.04;1663810;86;20959;-73
2021/07/20 00:18:08;;;;;;;12.82;7.83;;;;;;;17.37;83.15;98010.17;1663657;85;21454;-74
2021/07/20 00:20:34;;;;;;;15.85;8.18;;;;;;;17.30;83.03;98011.22;1726591;83;20944;-73
2021/07/20 00:23:00;;;;;;;14.03;7.95;;;;;;;17.30;83.55;98005.74;1726600;82;21158;-73
2021/07/20 00:25:25;;;;;;;13.25;8.55;;;;;;;17.32;83.70;98000.73;1726568;83;20943;-73
2021/07/20 00:27:51;;;;;;;14.40;8.18;;;;;;;17.32;83.06;98003.48;1726635;83;20895;-73
2021/07/20 00:30:17;;;;;;;13.70;7.08;;;;;;;17.41;82.58;98008.38;1726728;83;20844;-73
2021/07/20 00:32:44;;;;;;;13.38;7.15;;;;;;;17.43;82.99;98002.00;1726548;83;21439;-72
2021/07/20 00:35:11;;;;;;;13.70;7.87;;;;;;;17.43;83.38;98005.58;1663956;85;21057;-72
2021/07/20 00:37:38;;;;;;;15.08;8.25;;;;;;;17.40;83.38;98001.30;1726506;83;21010;-73
2021/07/20 00:40:06;;;;;;;11.22;7.50;;;;;;;17.46;82.56;98004.11;1691754;84;20979;-72
2021/07/20 00:42:32;;;;;;;12.30;7.33;;;;;;;17.53;82.87;98001.69;1663713;85;21423;-73
2021/07/20 00:44:58;;;;;;;12.55;8.45;;;;;;;17.53;83.26;98006.36;1726840;83;20864;-73
2021/07/20 00:47:24;;;;;;;14.75;8.50;;;;;;;17.56;82.32;98005.70;1663725;85;21319;-73
2021/07/20 00:49:50;;;;;;;13.65;8.45;;;;;;;17.53;83.26;98001.69;1726892;83;20871;-73
2021/07/20 00:52:15;;;;;;;14.50;8.28;;;;;;;17.50;82.94;98005.06;1663597;85;20895;-73
2021/07/20 00:54:42;;;;;;;14.63;8.30;;;;;;;17.45;83.11;97995.09;1663899;86;20875;-73
2021/07/20 00:57:08;;;;;;;11.50;7.75;;;;;;;17.42;83.39;98001.77;1663690;85;21054;-73
2021/07/20 00:59:37;;;;;;;15.98;8.78;;;;;;;17.37;83.78;98003.33;1663986;86;22044;-73
2021/07/20 01:02:04;;;;;;;;;;;;;;;17.17;84.86;97997.92;1729231;82;21320;-73
2021/07/20 01:04:30;;;;;;;16.80;10.18;;;;;;;17.10;85.28;98001.17;1726876;82;20136;-73
2021/07/20 01:06:56;;;;;;;15.03;9.40;;;;;;;17.01;86.21;98000.38;1726658;83;20867;-72
2021/07/20 01:09:22;;;;;;;13.68;9.85;;;;;;;17.07;85.25;98005.09;1726987;83;21050;-73
2021/07/20 01:11:48;;;;;;;15.98;10.60;;;;;;;17.08;85.52;97999.86;1726700;83;21303;-72
2021/07/20 01:14:14;;;;;;;13.53;9.78;;;;;;;17.06;86.37;98000.76;1716942;83;20914;-71
2021/07/20 01:16:42;;;;;;;15.25;10.65;;;;;;;17.10;85.73;97997.63;1720092;83;20843;-74
2021/07/20 01:31:46;;;;;;;17.92;11.30;;;;;;;17.16;84.69;97990.28;1735172;82;21006;-72
2021/07/20 01:34:13;;;;;;;16.10;10.65;;;;;;;17.17;85.64;97995.19;1729240;82;20851;-72
2021/07/20 01:36:40;;;;;;;16.15;9.93;;;;;;;17.22;84.69;97995.03;1718011;82;20962;-72
2021/07/20 01:39:09;;;;;;;14.87;11.05;;;;;;;17.26;85.16;97993.27;1708938;84;21190;-69
2021/07/20 01:41:36;;;;;;;;;;;;;;;17.20;85.83;97987.15;1709649;84;21077;-70
2021/07/20 01:44:05;;;;;;;21.93;13.55;;;;;;;17.19;84.51;97987.48;1701701;83;20133;-70
2021/07/20 01:46:33;;;;;;;17.67;13.62;;;;;;;17.14;84.13;97993.91;1728159;83;20947;-69
2021/07/20 01:49:00;;;;;;;28.75;13.90;;;;;;;17.03;84.49;98002.21;1728404;83;20987;-67
2021/07/20 01:51:26;;;;;;;23.07;14.47;;;;;;;16.92;85.60;97996.83;1720131;83;22035;-69
2021/07/20 01:53:52;;;;;;;24.15;14.70;;;;;;;16.80;86.26;98000.75;1704984;83;20847;-64
2021/07/20 01:56:19;;;;;;;24.10;13.13;;;;;;;16.80;86.87;98000.18;1708775;83;20995;-64
2021/07/20 01:58:45;;;;;;;22.52;13.88;;;;;;;16.78;86.36;98005.73;1707330;83;20962;-63
2021/07/20 02:01:25;;;;;;;27.10;12.20;;;;;;;16.68;86.76;98005.45;1665128;86;20873;-62
2021/07/20 02:09:07;;;;;;;20.65;11.00;;;;;;;16.60;86.38;98010.35;1728436;82;20932;-63
2021/07/20 02:11:35;;;;;;;26.80;13.18;;;;;;;16.53;85.91;98007.27;1718627;82;20903;-62
2021/07/20 02:14:05;;;;;;;26.27;13.00;;;;;;;16.54;85.27;98010.25;1699519;84;21428;-64
2021/07/20 02:16:34;;;;;;;18.82;11.90;;;;;;;16.41;85.72;98013.91;1698971;84;22466;-64
2021/07/20 02:19:18;;;;;;;19.48;11.35;;;;;;;16.39;85.94;98012.05;1710520;83;26687;-62
2021/07/20 02:21:48;;;;;;;19.12;11.75;;;;;;;16.34;85.87;98011.66;1707540;82;20932;-62
2021/07/20 02:24:25;;;;;;;18.42;11.40;;;;;;;16.32;85.84;98018.81;1708926;83;21023;-63
2021/07/20 02:26:51;;;;;;;26.37;11.28;;;;;;;16.31;86.17;98016.38;1727946;83;20946;-64
2021/07/20 02:29:17;;;;;;;18.98;10.03;;;;;;;16.27;85.51;98014.84;1728425;82;21537;-63
2021/07/20 02:31:44;;;;;;;20.35;11.45;;;;;;;16.26;85.31;98023.37;1728059;83;21431;-64
2021/07/20 02:34:10;;;;;;;17.48;11.15;;;;;;;16.23;85.33;98026.72;1734942;82;21078;-64
2021/07/20 02:36:37;;;;;;;23.50;11.40;;;;;;;16.17;84.92;98019.80;1736133;82;20847;-66
2021/07/20 02:39:05;;;;;;;17.45;10.93;;;;;;;16.06;85.45;98017.35;1736605;82;20962;-67
2021/07/20 02:41:31;;;;;;;24.37;11.03;;;;;;;16.16;84.43;98023.09;1736552;82;20999;-65
2021/07/20 02:43:57;;;;;;;17.57;10.43;;;;;;;16.22;84.51;98022.38;1735903;82;20871;-63
2021/07/20 02:46:23;;;;;;;18.48;10.75;;;;;;;16.21;85.63;98023.50;1736198;81;20922;-63
2021/07/20 02:48:50;;;;;;;17.50;11.00;;;;;;;16.15;86.04;98020.66;1736581;82;20843;-63
2021/07/20 02:51:18;;;;;;;18.17;10.93;;;;;;;16.11;85.80;98021.86;1715557;82;20907;-62
2021/07/20 02:53:46;;;;;;;14.03;10.10;;;;;;;16.12;85.79;98025.39;1709609;82;21759;-63
2021/07/20 02:56:11;;;;;;;16.55;10.00;;;;;;;16.13;86.69;98022.34;1706830;84;20923;-62
2021/07/20 02:58:37;;;;;;;16.35;10.53;;;;;;;16.21;85.44;98027.03;1691623;82;20937;-63
2021/07/20 03:01:05;;;;;;;18.60;10.58;;;;;;;16.26;85.44;98032.94;1672028;85;21055;-63
2021/07/20 03:03:32;;;;;;;14.78;9.83;;;;;;;16.33;85.33;98031.92;1735657;82;20934;-63
2021/07/20 03:05:59;;;;;;;16.32;9.50;;;;;;;16.36;85.19;98032.64;1736446;82;21683;-77
2021/07/20 03:08:29;;;;;;;16.60;9.33;;;;;;;16.40;85.40;98029.50;1736080;82;21313;-76
2021/07/20 03:11:06;;;;;;;17.92;9.88;;;;;;;16.42;85.27;98032.75;1709068;82;21282;-78
2021/07/20 03:13:35;;;;;;;18.80;11.50;;;;;;;16.48;85.73;98034.20;1706735;84;20931;-72
2021/07/20 03:16:03;;;;;;;18.07;10.43;;;;;;;16.46;85.52;98032.91;1708685;82;21065;-75
2021/07/20 03:18:29;;;;;;;22.50;11.63;;;;;;;16.49;85.17;98039.10;1706812;82;21753;-76
2021/07/20 03:20:55;;;;;;;20.75;11.20;;;;;;;16.57;84.48;98035.59;1719086;82;20938;-76
2021/07/20 03:23:22;;;;;;;20.23;11.75;;;;;;;16.55;84.34;98032.37;1734251;82;21025;-73
2021/07/20 03:25:48;;;;;;;20.88;11.45;;;;;;;16.57;84.46;98031.48;1735367;82;21029;-72
2021/07/20 03:28:14;;;;;;;20.72;11.35;;;;;;;16.60;84.49;98033.04;1735560;82;21048;-76
2021/07/20 03:30:40;;;;;;;16.65;10.23;;;;;;;16.68;84.46;98030.64;1735529;82;20961;-76
2021/07/20 03:33:06;;;;;;;18.42;11.05;;;;;;;16.72;84.28;98030.27;1735667;82;20879;-73
2021/07/20 03:35:32;;;;;;;16.70;9.75;;;;;;;16.70;84.41;98028.42;1735531;82;20890;-76
2021/07/20 03:37:58;;;;;;;17.92;11.10;;;;;;;16.65;84.94;98026.59;1735641;82;20954;-76
2021/07/20 03:40:25;;;;;;;18.87;12.20;;;;;;;16.56;85.06;98027.14;1736574;81;20887;-72
2021/07/20 03:42:51;;;;;;;17.20;10.32;;;;;;;16.54;85.73;98023.36;1736162;82;22009;-72
2021/07/20 03:45:17;;;;;;;17.60;10.80;;;;;;;16.50;85.24;98027.06;1715698;82;20870;-72
2021/07/20 03:47:43;;;;;;;16.90;10.38;;;;;;;16.51;85.19;98025.38;1735686;82;20859;-72
2021/07/20 03:50:11;;;;;;;14.87;9.98;;;;;;;16.48;85.52;98028.73;1736477;82;20902;-72
2021/07/20 03:52:38;;;;;;;17.77;9.38;;;;;;;16.49;85.21;98029.53;1736067;82;20979;-75
2021/07/20 03:55:07;;;;;;;19.35;11.43;;;;;;;16.47;85.71;98024.38;1736371;82;22043;-75
2021/07/20 03:57:34;;;;;;;;;;;;;;;16.55;85.19;98023.59;1738579;82;21320;-75
2021/07/20 04:00:01;;;;;;;16.70;10.45;;;;;;;16.60;85.44;98021.30;1735609;81;20182;-75
2021/07/20 04:02:35;;;;;;;17.42;10.32;;;;;;;16.63;85.01;98022.81;1736114;82;21205;-72
2021/07/20 04:05:01;;;;;;;18.82;10.25;;;;;;;16.72;84.93;98018.76;1736600;82;21002;-72
2021/07/20 04:07:27;;;;;;;14.68;10.18;;;;;;;16.75;84.55;98017.30;1736189;82;21067;-75
2021/07/20 04:09:53;;;;;;;16.00;10.18;;;;;;;16.75;84.56;98015.41;1736371;82;21560;-72
2021/07/20 04:12:19;;;;;;;15.80;10.48;;;;;;;16.75;85.06;98009.93;1736200;82;20835;-72
2021/07/20 04:14:46;;;;;;;16.02;11.18;;;;;;;16.74;84.86;98012.96;1736489;82;20874;-75
2021/07/20 04:17:12;;;;;;;21.25;11.73;;;;;;;16.75;84.66;98009.93;1736167;82;21006;-75
2021/07/20 04:19:40;;;;;;;19.75;12.73;;;;;;;16.80;84.80;98013.86;1736401;82;21031;-74
2021/07/20 04:22:06;;;;;;;20.00;11.80;;;;;;;16.85;84.42;98011.55;1736064;82;20895;-75
2021/07/20 04:24:32;;;;;;;20.50;11.70;;;;;;;16.80;84.57;98011.13;1736296;82;21017;-72
2021/07/20 04:26:59;;;;;;;23.27;16.77;;;;;;;16.78;84.52;98009.84;1736202;82;20910;-75
2021/07/20 04:29:26;;;;;;;16.60;10.82;;;;;;;16.74;84.82;98008.86;1736315;82;20954;-75
2021/07/20 04:31:54;;;;;;;17.30;11.18;;;;;;;16.65;85.34;98010.18;1736175;82;20983;-72
2021/07/20 04:34:20;;;;;;;22.55;13.28;;;;;;;16.61;85.97;98007.86;1730949;82;20959;-72
2021/07/20 04:36:46;;;;;;;24.07;13.45;;;;;;;16.62;85.46;98004.80;1728021;83;21026;-75
2021/07/20 04:39:12;;;;;;;18.50;11.63;;;;;;;16.71;85.42;98006.77;1728301;83;21439;-72
2021/07/20 04:41:39;;;;;;;22.25;13.15;;;;;;;16.70;85.27;98007.90;1673138;84;20910;-75
2021/07/20 04:44:05;;;;;;;20.32;12.98;;;;;;;16.71;85.29;98009.50;1728552;82;21249;-75
2021/07/20 04:46:32;;;;;;;21.97;12.73;;;;;;;16.76;85.32;98006.63;1728019;83;20947;-72
2021/07/20 04:48:58;;;;;;;22.05;14.65;;;;;;;16.75;85.15;98003.09;1707836;82;21084;-75
2021/07/20 04:51:25;;;;;;;26.35;14.13;;;;;;;16.74;85.34;98008.86;1728311;83;20863;-75
2021/07/20 04:53:51;;;;;;;25.85;12.50;;;;;;;16.70;85.21;98007.90;1728210;83;20975;-72
2021/07/20 04:56:17;;;;;;;23.52;12.23;;;;;;;16.64;85.16;98012.11;1728448;82;21206;-72
2021/07/20 04:58:42;;;;;;;26.68;12.33;;;;;;;16.63;85.22;98010.50;1728721;82;20931;-72
2021/07/20 05:01:08;;;;;;;18.45;10.85;;;;;;;16.63;85.37;98013.24;1728310;83;20986;-72
2021/07/20 05:03:38;;;;;;;22.87;12.78;;;;;;;16.63;85.42;98013.80;1707447;83;20840;-72
2021/07/20 05:06:04;;;;;;;19.70;11.30;;;;;;;16.67;85.48;98016.16;1728621;82;21027;-72
2021/07/20 05:08:30;;;;;;;17.95;10.00;;;;;;;16.65;85.37;98022.49;1728458;82;21323;-76
2021/07/20 05:10:56;;;;;;;20.40;12.33;;;;;;;16.63;85.42;98018.71;1728315;82;21640;-72
2021/07/20 05:13:22;;;;;;;18.80;12.03;;;;;;;16.59;85.46;98025.95;1727987;82;20926;-76
2021/07/20 05:15:57;;;;;;;17.57;10.88;;;;;;;16.67;85.54;98027.10;1692944;84;21087;-76
2021/07/20 05:18:23;;;;;;;20.88;13.30;;;;;;;16.74;85.62;98023.91;1727372;82;21463;-76
2021/07/20 05:20:51;;;;;;;41.60;31.45;;;;;;;16.74;86.02;98026.08;1727855;82;21995;-76
2021/07/20 05:23:19;;;;;;;33.73;25.23;;;;;;;16.74;86.11;98029.38;1727706;83;21415;-72
2021/07/20 05:25:48;;;;;;;26.48;20.08;;;;;;;16.76;85.71;98021.67;1728768;82;21037;-76
2021/07/20 05:28:14;;;;;;;;;;;;;;;16.83;85.53;98026.09;1730591;82;20931;-72
2021/07/20 05:30:43;;;;;;;20.50;13.15;;;;;;;16.83;85.64;98027.45;1728467;82;20233;-72
2021/07/20 05:33:09;;;;;;;20.12;12.73;;;;;;;16.88;85.26;98029.48;1728425;82;21399;-76
2021/07/20 05:35:35;;;;;;;18.27;12.68;;;;;;;16.91;84.57;98029.40;1728105;83;21406;-76
2021/07/20 05:38:01;;;;;;;23.55;13.45;;;;;;;16.82;84.38;98029.39;1728471;82;20995;-72
2021/07/20 05:40:27;;;;;;;20.02;12.80;;;;;;;16.77;84.28;98032.30;1728169;82;21018;-72
2021/07/20 05:42:55;;;;;;;19.73;12.43;;;;;;;16.69;84.72;98045.40;1728206;83;20903;-76
2021/07/20 05:45:21;;;;;;;22.90;12.07;;;;;;;16.58;84.92;98040.77;1728560;82;21306;-72
2021/07/20 05:47:49;;;;;;;21.02;12.95;;;;;;;16.67;84.60;98039.98;1728180;83;20913;-76
2021/07/20 05:50:16;;;;;;;19.82;12.30;;;;;;;16.63;85.04;98037.86;1729643;82;21026;-76
2021/07/20 05:52:45;;;;;;;23.70;13.32;;;;;;;16.54;85.46;98035.67;1728224;83;20935;-76
2021/07/20 05:55:13;;;;;;;22.32;12.60;;;;;;;16.51;86.20;98049.19;1728989;82;26356;-76
2021/07/20 05:57:40;;;;;;;23.80;13.28;;;;;;;16.52;85.72;98046.12;1727691;82;20972;-72
2021/07/20 06:00:08;;;;;;;21.07;12.35;;;;;;;16.57;85.58;98045.16;1728380;82;20979;-72
2021/07/20 06:02:38;;;;;;;29.65;12.82;;;;;;;16.55;85.95;98048.22;1728354;82;20927;-75
2021/07/20 06:05:07;;;;;;;17.73;12.07;;;;;;;16.54;86.22;98053.45;1728423;83;20967;-72
2021/07/20 06:07:35;;;;;;;18.00;11.53;;;;;;;16.50;85.90;98051.12;1693115;84;21375;-73
2021/07/20 06:10:01;;;;;;;20.82;12.35;;;;;;;16.42;86.30;98052.45;1728036;83;21127;-72
2021/07/20 06:12:27;;;;;;;24.02;13.65;;;;;;;16.36;86.28;98051.78;1728306;82;20950;-72
2021/07/20 06:14:52;;;;;;;24.50;13.35;;;;;;;16.40;86.04;98054.12;1728272;83;20926;-75
2021/07/20 06:17:25;;;;;;;23.90;14.40;;;;;;;16.42;86.13;98052.45;1728217;82;20851;-76
2021/07/20 06:19:51;;;;;;;19.77;11.65;;;;;;;16.33;86.12;98054.59;1728449;82;21471;-76
2021/07/20 06:22:20;;;;;;;17.95;12.15;;;;;;;16.29;86.37;98061.00;1728206;82;21112;-74
2021/07/20 06:24:46;;;;;;;;;;;;;;;16.27;86.56;98068.16;1731274;82;21007;-72
2021/07/20 06:27:13;;;;;;;20.20;12.70;;;;;;;16.21;86.98;98066.67;1728689;82;20210;-76
2021/07/20 06:29:38;;;;;;;26.45;13.72;;;;;;;16.21;87.01;98063.14;1728577;82;21138;-75
2021/07/20 06:32:06;;;;;;;24.72;12.23;;;;;;;16.23;86.81;98070.45;1727978;82;21688;-72
2021/07/20 06:34:35;;;;;;;20.00;13.08;;;;;;;16.14;87.77;98067.69;1728372;82;21003;-72
2021/07/20 06:37:01;;;;;;;20.82;12.50;;;;;;;16.19;86.73;98069.48;1728152;83;20935;-72
2021/07/20 06:39:27;;;;;;;20.35;12.65;;;;;;;16.13;88.22;98076.20;1728347;82;20958;-72
2021/07/20 06:41:53;;;;;;;22.42;13.35;;;;;;;16.05;88.11;98079.14;1728084;82;20951;-72
2021/07/20 06:44:19;;;;;;;21.75;13.08;;;;;;;15.97;88.74;98076.59;1728428;83;20966;-72
2021/07/20 06:46:45;;;;;;;19.60;13.45;;;;;;;15.96;89.13;98072.26;1728197;83;21235;-76
2021/07/20 06:49:14;;;;;;;26.55;13.85;;;;;;;16.13;87.82;98070.17;1728041;82;20902;-75
2021/07/20 06:51:40;;;;;;;23.67;14.90;;;;;;;16.17;88.70;98073.91;1728220;83;20936;-72
2021/07/20 06:54:06;;;;;;;18.75;13.58;;;;;;;16.16;88.42;98075.59;1728150;83;20827;-72
2021/07/20 06:56:36;;;;;;;20.00;14.58;;;;;;;16.18;88.71;98078.25;1707621;83;20954;-76
2021/07/20 06:59:02;;;;;;;22.25;13.80;;;;;;;16.28;88.11;98075.23;1728170;82;21062;-76
2021/07/20 07:01:30;;;;;;;26.70;14.73;;;;;;;16.40;87.86;98081.46;1728150;83;21880;-71
2021/07/20 07:04:29;;;;;;;25.03;17.37;;;;;;;16.48;87.75;98081.25;1728233;83;20970;-76
2021/07/20 07:06:57;;;;;;;23.75;17.77;;;;;;;16.52;87.07;98080.31;1727964;82;21006;-74
2021/07/20 07:09:30;;;;;;;22.15;15.93;;;;;;;16.63;86.55;98076.72;1728289;82;20974;-75
2021/07/20 07:11:58;;;;;;;27.85;17.02;;;;;;;16.70;86.28;98074.36;1707347;83;21406;-71
2021/07/20 07:14:24;;;;;;;29.45;18.90;;;;;;;16.67;85.89;98072.25;1728257;83;20947;-75
2021/07/20 07:16:52;;;;;;;28.07;19.82;;;;;;;16.70;85.93;98074.92;1728002;83;20978;-72
2021/07/20 07:19:21;;;;;;;33.83;20.12;;;;;;;16.67;85.80;98072.25;1707878;83;21069;-74
2021/07/20 07:21:51;;;;;;;34.20;20.12;;;;;;;16.65;85.24;98066.27;1728307;82;21009;-71
2021/07/20 07:24:19;;;;;;;33.90;20.45;;;;;;;16.58;85.60;98068.68;1706267;83;21131;-72
2021/07/20 07:26:47;;;;;;;31.42;18.35;;;;;;;16.57;85.23;98071.95;1728177;83;21042;-72
2021/07/20 07:29:14;;;;;;;34.18;18.67;;;;;;;16.58;85.78;98070.86;1727987;83;20896;-72
2021/07/20 07:31:42;;;;;;;33.40;16.77;;;;;;;16.67;85.53;98072.81;1728018;83;20947;-74
2021/07/20 07:34:09;;;;;;;24.45;16.62;;;;;;;16.54;86.80;98079.44;1708854;82;21010;-72
2021/07/20 07:36:36;;;;;;;27.05;15.78;;;;;;;16.49;86.66;98077.39;1736308;82;21163;-72
2021/07/20 07:39:03;;;;;;;21.45;16.00;;;;;;;16.60;87.15;98076.80;1736149;82;21367;-72
2021/07/20 07:41:33;;;;;;;30.62;17.23;;;;;;;16.62;86.62;98077.84;1736268;82;20946;-76
2021/07/20 07:43:58;;;;;;;23.42;15.13;;;;;;;16.68;86.02;98074.41;1736298;82;21064;-76
2021/07/20 07:46:24;;;;;;;26.00;16.57;;;;;;;16.74;86.45;98084.09;1736469;82;21505;-76
2021/07/20 07:48:50;;;;;;;24.87;15.45;;;;;;;16.78;85.70;98085.89;1736308;82;21334;-76
2021/07/20 07:51:16;;;;;;;32.20;17.40;;;;;;;16.61;85.46;98087.98;1736355;81;20878;-71
2021/07/20 07:53:42;;;;;;;23.90;17.55;;;;;;;16.69;85.28;98089.73;1677772;82;20955;-72
2021/07/20 07:56:08;;;;;;;23.45;16.52;;;;;;;16.73;84.60;98082.48;1736406;82;21002;-76
2021/07/20 07:58:33;;;;;;;24.07;17.52;;;;;;;16.75;84.71;98081.60;1736525;82;20839;-76
2021/07/20 08:01:03;;;;;;;23.45;16.55;;;;;;;16.83;85.19;98080.81;1736472;82;21314;-72
2021/07/20 08:03:31;;;;;;;30.97;16.90;;;;;;;16.91;84.63;98084.13;1736076;82;20974;-72
2021/07/20 08:05:59;;;;;;;25.90;14.93;;;;;;;16.95;84.53;98080.22;1735857;82;21054;-72
2021/07/20 08:08:25;;;;;;;26.93;16.82;;;;;;;16.89;84.01;98084.45;1736052;82;20942;-72
2021/07/20 08:10:51;;;;;;;24.55;16.12;;;;;;;16.83;83.99;98090.39;1736438;82;21021;-76
2021/07/20 08:13:18;;;;;;;25.85;17.20;;;;;;;16.92;83.87;98083.04;1736195;82;21311;-72
2021/07/20 08:15:47;;;;;;;31.90;17.27;;;;;;;16.86;83.24;98086.48;1736052;81;21459;-77
2021/07/20 08:18:13;;;;;;;28.45;17.67;;;;;;;16.84;83.08;98088.73;1715528;82;20919;-72
2021/07/20 08:20:40;;;;;;;29.55;17.40;;;;;;;16.92;83.34;98089.88;1736416;82;20902;-72
2021/07/20 08:23:06;;;;;;;28.92;17.67;;;;;;;16.93;83.66;98088.75;1715390;82;20950;-77
2021/07/20 08:25:36;;;;;;;25.30;17.52;;;;;;;17.10;84.37;98092.08;1736488;82;21318;-72
2021/07/20 08:28:11;;;;;;;21.75;15.08;;;;;;;17.00;82.62;98093.16;1736105;82;21019;-72
2021/07/20 08:30:41;;;;;;;27.40;15.78;;;;;;;17.03;83.09;98091.17;1736412;82;21053;-76
2021/07/20 08:33:11;;;;;;;26.68;17.37;;;;;;;17.00;83.21;98095.91;1736071;82;21479;-76
2021/07/20 08:35:39;;;;;;;21.25;14.70;;;;;;;17.22;83.33;98095.54;1735641;81;21002;-72
2021/07/20 08:38:08;;;;;;;23.87;16.70;;;;;;;17.27;83.28;98098.13;1714960;82;21099;-76
2021/07/20 08:41:01;;;;;;;26.12;16.17;;;;;;;17.26;82.38;98099.23;1736215;82;21010;-76
2021/07/20 08:43:56;;;;;;;29.02;17.25;;;;;;;17.37;82.84;98099.98;1736128;82;21005;-72
2021/07/20 08:46:39;;;;;;;32.45;17.15;;;;;;;17.14;82.76;98107.53;1736479;82;20911;-76
2021/07/20 08:49:23;;;;;;;30.37;19.98;;;;;;;17.09;83.27;98106.33;1736722;82;21081;-75
2021/07/20 08:52:00;;;;;;;27.98;17.87;;;;;;;17.24;82.91;98111.08;1736318;82;21371;-71
2021/07/20 08:54:39;;;;;;;32.15;17.73;;;;;;;17.35;82.65;98111.83;1715185;82;20916;-75
2021/07/20 08:57:06;;;;;;;29.72;18.62;;;;;;;17.28;82.52;98113.44;1736186;82;21340;-72
2021/07/20 08:59:59;;;;;;;31.77;18.67;;;;;;;17.29;82.82;98119.95;1736060;82;20970;-76
2021/07/20 09:03:13;;;;;;;25.10;17.32;;;;;;;17.39;82.92;98111.98;1735551;82;21371;-76
2021/07/20 09:06:05;;;;;;;31.12;16.05;;;;;;;17.52;83.44;98112.40;1736628;82;20993;-72
2021/07/20 09:09:01;;;;;;;27.55;17.15;;;;;;;17.63;83.10;98109.56;1735960;82;20939;-77
2021/07/20 09:11:52;;;;;;;22.15;15.43;;;;;;;17.72;82.40;98102.73;1736009;82;21442;-75
2021/07/20 09:14:39;;;;;;;26.85;18.82;;;;;;;17.82;82.18;98108.45;1736136;81;21006;-72
2021/07/20 09:17:27;;;;;;;28.17;18.95;;;;;;;17.90;81.71;98109.80;1736412;82;20943;-75
2021/07/20 09:19:58;;;;;;;26.70;18.25;;;;;;;17.87;81.49;98112.40;1736395;82;22050;-72
2021/07/20 09:22:42;;;;;;;31.50;19.17;;;;;;;17.79;80.75;98107.17;1736225;82;20927;-72
2021/07/20 09:25:24;;;;;;;28.25;18.75;;;;;;;17.85;81.26;98112.70;1736483;82;21431;-76
2021/07/20 09:28:08;;;;;;;28.90;18.37;;;;;;;17.84;81.33;98113.03;1716807;82;21013;-72
2021/07/20 09:30:39;;;;;;;35.63;21.82;;;;;;;17.87;81.67;98113.77;1736503;82;21414;-72
2021/07/20 09:33:26;;;;;;;30.85;18.45;;;;;;;17.93;81.36;98108.34;1736284;82;21125;-72
2021/07/20 09:36:14;;;;;;;35.90;25.88;;;;;;;17.99;81.67;98113.89;1736724;81;21505;-72
2021/07/20 09:38:59;;;;;;;;;;;;;;;18.02;81.45;98115.41;1739001;82;21374;-76
2021/07/20 09:42:05;;;;;;;28.47;18.00;;;;;;;17.87;81.20;98113.20;1736665;82;20616;-72
2021/07/20 09:44:44;;;;;;;27.25;16.80;;;;;;;17.89;81.09;98110.94;1727706;82;21374;-76
2021/07/20 09:47:42;;;;;;;26.68;16.87;;;;;;;17.93;81.12;98116.56;1736486;81;21383;-76
2021/07/20 09:50:15;;;;;;;28.35;17.12;;;;;;;17.98;81.11;98114.47;1736249;82;20981;-71
2021/07/20 09:53:01;;;;;;;28.40;18.35;;;;;;;17.89;81.19;98112.88;1736219;82;21014;-76
2021/07/20 09:55:52;;;;;;;26.37;17.60;;;;;;;17.92;81.33;98111.64;1736402;82;20994;-76
2021/07/20 09:58:39;;;;;;;30.40;17.40;;;;;;;17.95;81.29;98114.33;1736379;82;20947;-76
2021/07/20 10:01:15;;;;;;;25.48;16.05;;;;;;;17.99;81.47;98121.55;1736205;82;21178;-72
2021/07/20 10:04:03;;;;;;;28.52;16.85;;;;;;;17.81;81.53;98119.97;1733488;82;21422;-72
2021/07/20 10:06:53;;;;;;;18.75;11.95;;;;;;;17.51;83.22;98127.20;1736556;82;21010;-77
2021/07/20 10:09:43;;;;;;;22.75;14.23;;;;;;;17.20;84.03;98124.05;1736434;81;21443;-72
2021/07/20 10:12:30;;;;;;;24.10;13.40;;;;;;;17.11;83.59;98127.34;1716799;83;21059;-76
2021/07/20 10:15:08;;;;;;;17.90;13.40;;;;;;;17.08;84.82;98125.22;1717092;83;21125;-76
2021/07/20 10:17:53;;;;;;;22.58;12.43;;;;;;;17.15;83.93;98123.39;1705457;82;21336;-73
2021/07/20 10:20:22;;;;;;;13.03;9.33;;;;;;;17.19;85.30;98123.81;1736279;82;20998;-76
2021/07/20 10:23:00;;;;;;;16.23;11.18;;;;;;;17.23;83.61;98120.42;1736335;82;21014;-76
2021/07/20 10:25:33;;;;;;;;;;;;;;;17.30;83.59;98115.28;1739056;81;21424;-76
2021/07/20 10:28:12;;;;;;;14.07;10.15;;;;;;;17.25;83.13;98114.86;1736265;81;21180;-76
2021/07/20 10:30:39;;;;;;;15.80;10.53;;;;;;;17.35;82.67;98121.41;1736553;82;26768;-76
2021/07/20 10:33:23;;;;;;;11.00;8.78;;;;;;;17.36;82.41;98114.81;1736119;82;20914;-72
2021/07/20 10:36:02;;;;;;;13.58;9.30;;;;;;;17.37;81.55;98113.68;1736707;81;21030;-72
2021/07/20 10:38:41;;;;;;;12.93;9.35;;;;;;;17.33;81.21;98117.37;1736223;82;20959;-73
2021/07/20 10:41:07;;;;;;;14.53;9.10;;;;;;;17.28;80.77;98122.45;1715030;82;21426;-72
2021/07/20 10:43:51;;;;;;;15.32;10.13;;;;;;;17.18;81.43;98115.92;1736046;81;20955;-73
2021/07/20 10:46:17;;;;;;;11.20;7.87;;;;;;;17.20;81.68;98117.77;1736038;82;21045;-72
2021/07/20 10:48:47;;;;;;;14.23;7.30;;;;;;;17.25;81.73;98118.97;1736322;82;21038;-75
2021/07/20 10:51:21;;;;;;;9.18;7.15;;;;;;;17.30;81.28;98119.39;1716030;82;20922;-76
2021/07/20 10:54:01;;;;;;;10.03;7.15;;;;;;;17.26;80.93;98120.61;1736299;82;21572;-76
2021/07/20 10:56:43;;;;;;;11.83;7.33;;;;;;;17.25;80.63;98124.44;1736554;81;21000;-71
2021/07/20 10:59:49;;;;;;;10.78;7.30;;;;;;;17.20;80.11;98129.53;1736285;82;20989;-76
2021/07/20 11:03:05;;;;;;;8.98;6.05;;;;;;;17.15;79.53;98129.67;1736242;82;21021;-72
2021/07/20 11:05:31;;;;;;;18.27;10.50;;;;;;;17.07;78.69;98124.18;1736161;82;21022;-71
2021/07/20 11:08:02;;;;;;;41.05;22.37;;;;;;;16.90;79.31;98132.59;1736335;82;20992;-74
2021/07/20 11:10:35;;;;;;;16.80;10.45;;;;;;;16.96;80.06;98124.25;1736062;82;20951;-75
2021/07/20 11:13:08;;;;;;;16.70;10.80;;;;;;;17.00;80.66;98126.58;1736270;82;20975;-73
2021/07/20 11:15:35;;;;;;;13.83;8.73;;;;;;;17.08;81.15;98118.94;1735998;82;21028;-71
2021/07/20 11:18:06;;;;;;;17.65;11.10;;;;;;;17.05;81.56;98116.29;1715807;82;20982;-75
2021/07/20 11:20:32;;;;;;;23.60;15.08;;;;;;;17.04;81.48;98115.25;1736061;81;21348;-76
2021/07/20 11:22:58;;;;;;;22.62;14.75;;;;;;;17.13;81.55;98105.11;1736107;82;21038;-76
2021/07/20 11:25:24;;;;;;;15.00;9.95;;;;;;;17.24;82.00;98094.65;1736274;82;20962;-73
2021/07/20 11:27:52;;;;;;;14.78;9.58;;;;;;;17.45;81.43;98091.53;1736240;82;20945;-75
2021/07/20 11:30:20;;;;;;;15.63;10.08;;;;;;;17.59;81.45;98094.88;1736121;82;21080;-73
2021/07/20 11:32:57;;;;;;;13.08;9.23;;;;;;;17.92;81.03;98091.09;1736354;82;21607;-76
2021/07/20 11:35:24;;;;;;;16.65;10.15;;;;;;;18.19;79.74;98096.73;1693229;81;21392;-76
2021/07/20 11:38:00;;;;;;;18.12;11.38;;;;;;;18.35;79.00;98096.20;1736142;81;21414;-77
2021/07/20 11:40:31;;;;;;;14.98;10.85;;;;;;;18.59;77.70;98089.57;1735086;82;20932;-77
2021/07/20 11:43:02;;;;;;;20.35;13.38;;;;;;;18.81;77.28;98086.59;1736764;82;20974;-73
2021/07/20 11:45:36;;;;;;;11.12;8.18;;;;;;;19.20;76.49;98080.42;1736011;82;21887;-73
2021/07/20 11:48:06;;;;;;;12.78;8.80;;;;;;;20.02;74.83;98078.52;1735680;82;20930;-76
2021/07/20 11:50:52;;;;;;;15.18;10.40;;;;;;;20.61;71.74;98078.98;1736174;82;20943;-76
2021/07/20 11:53:37;;;;;;;11.48;8.63;;;;;;;21.69;68.73;98083.83;1736048;82;21002;-73
2021/07/20 11:56:24;;;;;;;11.93;8.50;;;;;;;24.32;60.55;98078.13;1736443;82;20950;-74